Time;durP1;ratioP1;P1;durP2;ratioP2;P2;SDS_P1;SDS_P2;PMS_P1;PMS_P2;Temp;Humidity;BMP_temperature;BMP_pressure;BME280_temperature;BME280_humidity;BME280_pressure;Samples;Min_cycle;Max_cycle;Signal;HPM_P1;HPM_P2
2023/07/11 00:00:04;;;;;;;2.05;2.05;;;24.80;71.60;;;;;;5055430;28;45675;-71
2023/07/11 00:02:33;;;;;;;2.08;2.08;;;24.70;71.40;;;;;;5076007;28;43930;-71
2023/07/11 00:05:01;;;;;;;2.20;2.20;;;24.80;71.50;;;;;;5052127;28;43446;-72
2023/07/11 00:07:29;;;;;;;1.85;1.85;;;24.80;71.60;;;;;;5070051;28;43532;-71
2023/07/11 00:09:57;;;;;;;2.13;2.13;;;24.80;71.70;;;;;;5070114;28;43599;-71
2023/07/11 00:12:28;;;;;;;2.00;2.00;;;24.70;71.70;;;;;;5051877;28;44449;-71
2023/07/11 00:14:57;;;;;;;1.90;1.90;;;24.70;71.60;;;;;;5069032;28;43905;-72
2023/07/11 00:17:25;;;;;;;2.00;2.00;;;24.70;71.60;;;;;;5070748;28;43511;-70
2023/07/11 00:19:55;;;;;;;2.38;2.28;;;24.70;71.80;;;;;;5070064;28;43834;-71
2023/07/11 00:22:24;;;;;;;2.10;2.10;;;24.70;71.90;;;;;;5070074;28;43417;-71
2023/07/11 00:24:52;;;;;;;2.00;2.00;;;24.70;71.90;;;;;;5070506;28;43499;-70
2023/07/11 00:27:20;;;;;;;2.00;2.00;;;24.80;71.70;;;;;;5052349;28;43499;-71
2023/07/11 00:29:48;;;;;;;2.00;2.00;;;24.90;71.30;;;;;;5069814;28;43607;-73
2023/07/11 00:32:17;;;;;;;2.20;2.20;;;25.00;70.90;;;;;;5069356;28;43593;-71
2023/07/11 00:34:45;;;;;;;2.10;2.10;;;25.10;70.50;;;;;;5051692;28;43559;-70
2023/07/11 00:37:16;;;;;;;1.95;1.95;;;25.10;70.40;;;;;;5069974;28;43486;-72
2023/07/11 00:39:44;;;;;;;2.20;2.20;;;25.10;70.50;;;;;;5069579;28;43676;-70
2023/07/11 00:42:12;;;;;;;2.22;2.03;;;25.00;70.70;;;;;;5051449;28;44863;-70
2023/07/11 00:44:51;;;;;;;1.92;1.92;;;25.00;70.80;;;;;;5043398;28;44017;-70
2023/07/11 00:47:19;;;;;;;2.25;2.17;;;25.00;70.90;;;;;;5068158;28;43321;-71
2023/07/11 00:49:47;;;;;;;2.15;2.15;;;24.90;71.00;;;;;;5067981;28;43890;-71
2023/07/11 00:52:18;;;;;;;2.05;2.05;;;24.90;71.30;;;;;;5051364;28;44786;-73
2023/07/11 00:54:48;;;;;;;2.10;2.10;;;24.80;71.20;;;;;;5065374;28;43415;-71
2023/07/11 00:57:16;;;;;;;2.10;2.10;;;24.80;71.30;;;;;;5069559;28;43388;-71
2023/07/11 00:59:44;;;;;;;1.80;1.80;;;24.80;71.40;;;;;;5046504;28;45308;-72
2023/07/11 01:02:15;;;;;;;1.80;1.80;;;24.80;71.70;;;;;;5047950;28;44413;-71
2023/07/11 01:04:43;;;;;;;2.25;2.25;;;24.80;71.70;;;;;;5063022;28;43454;-71
2023/07/11 01:07:13;;;;;;;2.13;2.13;;;24.80;71.40;;;;;;5070321;28;43452;-70
2023/07/11 01:09:43;;;;;;;1.85;1.85;;;24.90;71.20;;;;;;5048559;28;43824;-71
2023/07/11 01:12:13;;;;;;;2.03;2.03;;;24.90;71.10;;;;;;5069340;28;43471;-71
2023/07/11 01:14:41;;;;;;;1.70;1.70;;;24.90;71.10;;;;;;5068537;28;43424;-71
2023/07/11 01:17:35;;;;;;;2.00;2.00;;;24.80;71.20;;;;;;5065198;28;43428;-72
2023/07/11 01:20:05;;;;;;;2.13;2.13;;;24.80;71.20;;;;;;5047877;28;43960;-70
2023/07/11 01:22:35;;;;;;;2.10;2.10;;;24.90;71.20;;;;;;5068927;28;43456;-70
2023/07/11 01:25:06;;;;;;;2.28;2.28;;;24.80;71.20;;;;;;5068504;28;43363;-70
2023/07/11 01:27:34;;;;;;;2.00;2.00;;;24.80;71.50;;;;;;5050400;28;43471;-71
2023/07/11 01:30:04;;;;;;;2.17;2.17;;;24.80;71.60;;;;;;5068520;28;43580;-70
2023/07/11 01:32:32;;;;;;;2.00;2.00;;;24.80;71.40;;;;;;5049843;28;44036;-71
2023/07/11 01:35:00;;;;;;;2.22;2.15;;;24.90;71.10;;;;;;5050654;28;43510;-70
2023/07/11 01:37:28;;;;;;;2.05;2.05;;;25.00;70.80;;;;;;5069516;28;43407;-71
2023/07/11 01:39:57;;;;;;;1.92;1.92;;;25.00;70.50;;;;;;5068821;28;43620;-70
2023/07/11 01:42:27;;;;;;;2.15;2.13;;;25.00;70.50;;;;;;5049120;28;44709;-70
2023/07/11 01:44:55;;;;;;;1.98;1.98;;;25.00;70.70;;;;;;5068669;28;43454;-70
2023/07/11 01:47:23;;;;;;;2.15;2.15;;;24.90;71.10;;;;;;5050723;28;43629;-70
2023/07/11 01:49:51;;;;;;;1.85;1.85;;;24.90;70.90;;;;;;5049238;28;45789;-70
2023/07/11 01:52:20;;;;;;;1.85;1.85;;;24.90;71.10;;;;;;5067886;28;43934;-70
2023/07/11 01:54:49;;;;;;;2.10;2.10;;;24.80;71.20;;;;;;5055466;28;43415;-73
2023/07/11 01:57:18;;;;;;;2.08;2.08;;;24.80;71.40;;;;;;5050294;28;43524;-70
2023/07/11 01:59:46;;;;;;;2.05;2.05;;;24.70;71.20;;;;;;5049465;28;45653;-70
2023/07/11 02:02:14;;;;;;;1.80;1.80;;;24.80;71.40;;;;;;5067509;28;43521;-70
2023/07/11 02:04:42;;;;;;;1.70;1.70;;;24.80;71.50;;;;;;5068036;28;43618;-70
2023/07/11 02:07:10;;;;;;;2.10;2.10;;;24.70;71.60;;;;;;5058699;28;43494;-72
2023/07/11 02:09:38;;;;;;;2.00;2.00;;;24.70;71.70;;;;;;5058305;28;46899;-70
2023/07/11 02:12:07;;;;;;;1.80;1.80;;;24.80;71.60;;;;;;5066476;28;44999;-70
2023/07/11 02:14:40;;;;;;;2.03;2.03;;;24.90;71.20;;;;;;5073222;28;43534;-70
2023/07/11 02:17:09;;;;;;;1.83;1.83;;;25.00;70.80;;;;;;5057577;28;43373;-71
2023/07/11 02:19:37;;;;;;;2.20;2.20;;;25.10;70.60;;;;;;5066039;28;45952;-70
2023/07/11 02:22:05;;;;;;;1.83;1.83;;;25.00;70.40;;;;;;5070517;28;45155;-70
2023/07/11 02:24:33;;;;;;;2.05;2.05;;;25.00;70.60;;;;;;5068443;28;43382;-70
2023/07/11 02:27:01;;;;;;;2.15;2.15;;;24.90;70.80;;;;;;5081304;28;43305;-70
2023/07/11 02:29:29;;;;;;;1.90;1.90;;;24.90;71.50;;;;;;5081203;28;43666;-70
2023/07/11 02:31:58;;;;;;;2.10;2.10;;;24.90;70.90;;;;;;5065024;28;44328;-70
2023/07/11 02:34:26;;;;;;;1.90;1.90;;;24.80;71.00;;;;;;5080171;28;43353;-70
2023/07/11 02:36:54;;;;;;;2.20;2.20;;;24.80;71.30;;;;;;5061126;28;43421;-70
2023/07/11 02:39:22;;;;;;;1.90;1.90;;;24.80;71.40;;;;;;5068804;28;43782;-70
2023/07/11 02:41:51;;;;;;;1.90;1.90;;;24.80;71.30;;;;;;5072096;28;44103;-70
2023/07/11 02:44:19;;;;;;;1.93;1.93;;;24.80;71.40;;;;;;5071711;28;43638;-70
2023/07/11 02:46:47;;;;;;;2.00;2.00;;;24.70;71.50;;;;;;5067674;28;43435;-70
2023/07/11 02:49:16;;;;;;;1.83;1.83;;;24.70;71.60;;;;;;5068538;28;44988;-72
2023/07/11 02:51:44;;;;;;;2.00;2.00;;;24.70;71.50;;;;;;5086454;28;44083;-70
2023/07/11 02:54:12;;;;;;;1.85;1.85;;;24.70;71.50;;;;;;5074256;28;43989;-70
2023/07/11 02:56:40;;;;;;;2.00;2.00;;;24.70;71.70;;;;;;5076996;28;43799;-71
2023/07/11 02:59:08;;;;;;;2.25;2.20;;;24.70;71.80;;;;;;5052129;28;44085;-70
2023/07/11 03:01:36;;;;;;;1.83;1.83;;;24.70;71.80;;;;;;5080611;28;43380;-69
2023/07/11 03:04:04;;;;;;;2.00;2.00;;;24.80;71.50;;;;;;5067552;28;43531;-70
2023/07/11 03:06:33;;;;;;;1.80;1.80;;;24.90;71.20;;;;;;5069788;28;44086;-70
2023/07/11 03:09:01;;;;;;;2.25;2.25;;;25.00;70.70;;;;;;5076833;28;43936;-69
2023/07/11 03:11:29;;;;;;;2.03;2.03;;;25.00;70.50;;;;;;5084208;28;43742;-71
2023/07/11 03:13:57;;;;;;;2.10;2.10;;;25.10;70.40;;;;;;5067872;28;43471;-70
2023/07/11 03:16:25;;;;;;;1.75;1.75;;;25.00;70.60;;;;;;5072249;28;43460;-70
2023/07/11 03:18:53;;;;;;;2.13;2.13;;;24.90;70.80;;;;;;5075884;28;43830;-71
2023/07/11 03:21:21;;;;;;;2.10;2.10;;;24.90;70.70;;;;;;5073937;28;43512;-70
2023/07/11 03:23:50;;;;;;;1.90;1.90;;;24.90;70.80;;;;;;5056411;28;43495;-70
2023/07/11 03:26:18;;;;;;;2.08;2.08;;;24.80;71.00;;;;;;5077997;28;43412;-71
2023/07/11 03:28:46;;;;;;;1.92;1.88;;;24.80;71.30;;;;;;5080049;28;43972;-71
2023/07/11 03:31:16;;;;;;;2.03;2.03;;;24.80;71.30;;;;;;5052307;28;44844;-71
2023/07/11 03:33:46;;;;;;;1.98;1.98;;;24.80;71.20;;;;;;5063115;28;43481;-70
2023/07/11 03:36:14;;;;;;;2.17;2.17;;;24.70;71.30;;;;;;5060800;28;43372;-71
2023/07/11 03:38:42;;;;;;;2.10;2.10;;;24.70;71.30;;;;;;5074661;28;44293;-71
2023/07/11 03:41:11;;;;;;;2.05;2.05;;;24.70;71.50;;;;;;5082896;28;44449;-70
2023/07/11 03:43:39;;;;;;;2.00;2.00;;;24.80;71.30;;;;;;5076320;28;43424;-70
2023/07/11 03:46:07;;;;;;;2.10;2.10;;;24.90;71.00;;;;;;5079489;28;43417;-70
2023/07/11 03:48:36;;;;;;;2.20;2.10;;;24.90;70.10;;;;;;5077460;28;43965;-71
2023/07/11 03:51:04;;;;;;;2.33;2.22;;;24.80;69.50;;;;;;5056228;28;45074;-70
2023/07/11 03:53:32;;;;;;;2.35;2.25;;;24.80;70.40;;;;;;5062643;28;43502;-73
2023/07/11 03:55:59;;;;;;;2.03;2.03;;;24.80;70.50;;;;;;5068944;28;43469;-72
2023/07/11 03:58:29;;;;;;;2.33;2.33;;;24.80;69.80;;;;;;5070552;28;43811;-76
2023/07/11 04:00:57;;;;;;;2.00;2.00;;;24.80;69.30;;;;;;5073382;28;43476;-71
2023/07/11 04:03:25;;;;;;;2.65;2.55;;;24.80;70.00;;;;;;5062252;28;43936;-71
2023/07/11 04:05:54;;;;;;;2.38;2.38;;;24.80;70.40;;;;;;5081584;28;43834;-71
2023/07/11 04:08:22;;;;;;;2.40;2.40;;;24.70;69.60;;;;;;5068360;28;45735;-71
2023/07/11 04:10:50;;;;;;;2.30;2.30;;;24.70;69.20;;;;;;5086450;27;43363;-71
2023/07/11 04:13:18;;;;;;;2.70;2.70;;;24.70;69.60;;;;;;5065526;28;43766;-71
2023/07/11 04:15:47;;;;;;;2.20;2.20;;;24.70;70.70;;;;;;5085985;28;43368;-72
2023/07/11 04:18:15;;;;;;;2.67;2.58;;;24.70;70.60;;;;;;5069391;28;43739;-72
2023/07/11 04:20:43;;;;;;;2.60;2.50;;;24.80;70.30;;;;;;5071125;28;45212;-71
2023/07/11 04:23:11;;;;;;;2.72;2.72;;;25.00;70.00;;;;;;5082750;28;43409;-71
2023/07/11 04:25:39;;;;;;;2.20;2.20;;;25.00;69.40;;;;;;5072037;28;43931;-71
2023/07/11 04:28:07;;;;;;;2.67;2.58;;;25.00;68.60;;;;;;5084202;28;43777;-71
2023/07/11 04:30:36;;;;;;;2.33;2.33;;;25.00;68.30;;;;;;5080698;28;43961;-72
2023/07/11 04:33:05;;;;;;;2.70;2.70;;;24.90;69.30;;;;;;5083277;28;43599;-71
2023/07/11 04:35:33;;;;;;;2.80;2.70;;;24.90;69.00;;;;;;5070876;28;44117;-72
2023/07/11 04:38:01;;;;;;;2.80;2.70;;;24.90;68.70;;;;;;5065421;28;44160;-72
2023/07/11 04:40:29;;;;;;;2.60;2.60;;;24.80;67.90;;;;;;5065504;28;43556;-71
2023/07/11 04:42:58;;;;;;;2.55;2.45;;;24.80;69.40;;;;;;5080217;28;43389;-70
2023/07/11 04:45:26;;;;;;;2.78;2.60;;;24.70;69.70;;;;;;5066784;28;43958;-71
2023/07/11 04:47:54;;;;;;;2.77;2.70;;;24.70;69.00;;;;;;5070155;28;45981;-70
2023/07/11 04:50:24;;;;;;;3.65;3.47;;;24.70;68.00;;;;;;5081540;28;43380;-70
2023/07/11 04:52:52;;;;;;;3.97;3.67;;;24.70;69.00;;;;;;5079633;28;43480;-69
2023/07/11 04:55:20;;;;;;;3.58;3.47;;;24.70;67.60;;;;;;5065714;28;43539;-71
2023/07/11 04:57:48;;;;;;;3.80;3.50;;;24.70;67.40;;;;;;5077169;28;43896;-70
2023/07/11 05:00:16;;;;;;;3.72;3.42;;;24.80;67.80;;;;;;5063578;28;45115;-69
2023/07/11 05:02:44;;;;;;;4.30;3.70;;;24.90;67.40;;;;;;5082571;28;43316;-71
2023/07/11 05:05:12;;;;;;;3.40;3.30;;;24.90;67.20;;;;;;5075824;28;43361;-70
2023/07/11 05:07:42;;;;;;;3.93;3.73;;;24.90;67.30;;;;;;5078080;28;43601;-69
2023/07/11 05:10:10;;;;;;;3.58;3.45;;;24.80;67.30;;;;;;5080783;28;43487;-69
2023/07/11 05:12:38;;;;;;;3.42;3.33;;;24.80;68.40;;;;;;5062214;28;43414;-69
2023/07/11 05:15:08;;;;;;;3.33;3.17;;;24.80;68.50;;;;;;5079068;28;44110;-69
2023/07/11 05:17:36;;;;;;;3.50;3.40;;;24.80;68.00;;;;;;5075275;28;43627;-72
2023/07/11 05:20:05;;;;;;;3.50;3.30;;;24.70;67.90;;;;;;5062153;28;44750;-70
2023/07/11 05:22:33;;;;;;;3.20;3.10;;;24.70;69.20;;;;;;5065932;28;43451;-70
2023/07/11 05:25:02;;;;;;;3.60;3.40;;;24.70;69.10;;;;;;5070713;28;43624;-69
2023/07/11 05:27:30;;;;;;;3.30;3.20;;;24.70;68.70;;;;;;5072258;28;43766;-70
2023/07/11 05:29:58;;;;;;;3.45;3.25;;;24.70;69.00;;;;;;5080646;28;43409;-70
2023/07/11 05:32:26;;;;;;;3.28;3.17;;;24.60;69.40;;;;;;5057725;28;43867;-70
2023/07/11 05:34:54;;;;;;;3.22;3.13;;;24.60;69.60;;;;;;5080943;28;43486;-70
2023/07/11 05:37:23;;;;;;;3.20;3.10;;;24.70;69.60;;;;;;5053451;28;45669;-70
2023/07/11 05:39:51;;;;;;;3.40;3.30;;;24.80;69.50;;;;;;5074631;28;43370;-70
2023/07/11 05:42:21;;;;;;;3.80;3.50;;;24.90;69.20;;;;;;5053501;28;43991;-69
2023/07/11 05:44:49;;;;;;;3.40;3.30;;;25.00;68.40;;;;;;5079989;28;43953;-70
2023/07/11 05:47:17;;;;;;;3.03;2.93;;;25.00;68.00;;;;;;5062195;28;43886;-70
2023/07/11 05:49:45;;;;;;;3.42;3.33;;;24.90;67.90;;;;;;5074992;28;44068;-70
2023/07/11 05:52:13;;;;;;;3.70;3.40;;;24.90;68.70;;;;;;5075404;28;43412;-69
2023/07/11 05:54:41;;;;;;;3.30;3.20;;;24.80;68.70;;;;;;5073909;28;43463;-69
2023/07/11 05:57:09;;;;;;;3.30;3.20;;;24.80;68.60;;;;;;5066190;28;46107;-69
2023/07/11 05:59:38;;;;;;;3.20;3.10;;;24.80;68.50;;;;;;5082422;28;43535;-70
2023/07/11 06:02:06;;;;;;;3.40;3.30;;;24.70;69.40;;;;;;5072754;28;43459;-70
2023/07/11 06:04:34;;;;;;;3.13;3.03;;;24.70;69.30;;;;;;5080935;28;43383;-72
2023/07/11 06:07:03;;;;;;;2.90;2.90;;;24.70;69.20;;;;;;5066253;28;46037;-69
2023/07/11 06:09:33;;;;;;;3.40;3.30;;;24.70;69.50;;;;;;5069785;28;44574;-69
2023/07/11 06:12:05;;;;;;;3.10;3.00;;;24.70;69.90;;;;;;5069604;28;43455;-69
2023/07/11 06:14:34;;;;;;;3.20;3.10;;;24.60;69.80;;;;;;5065261;28;43497;-71
2023/07/11 06:17:03;;;;;;;3.28;3.17;;;24.70;69.70;;;;;;5080678;28;43762;-69
2023/07/11 06:19:32;;;;;;;2.97;2.88;;;24.60;69.60;;;;;;5059574;28;44943;-69
2023/07/11 06:22:00;;;;;;;3.20;3.10;;;24.60;69.80;;;;;;5062172;28;43338;-69
2023/07/11 06:24:28;;;;;;;3.17;3.08;;;24.60;70.00;;;;;;5062068;28;43460;-69
2023/07/11 06:26:56;;;;;;;2.97;2.88;;;24.70;69.80;;;;;;5066329;28;45206;-70
2023/07/11 06:29:23;;;;;;;3.20;3.10;;;24.80;69.80;;;;;;5067226;28;43476;-70
2023/07/11 06:31:51;;;;;;;3.10;3.00;;;24.90;69.60;;;;;;5068371;28;43437;-70
2023/07/11 06:34:21;;;;;;;3.05;2.95;;;25.00;69.10;;;;;;5069903;28;43475;-70
2023/07/11 06:36:49;;;;;;;3.47;3.38;;;25.00;68.60;;;;;;5085996;28;43605;-71
2023/07/11 06:39:17;;;;;;;2.97;2.87;;;25.00;68.50;;;;;;5072074;28;43803;-70
2023/07/11 06:41:45;;;;;;;3.13;3.03;;;24.90;69.00;;;;;;5069119;28;43404;-70
2023/07/11 06:44:13;;;;;;;3.08;2.97;;;24.80;69.00;;;;;;5065072;28;43332;-70
2023/07/11 06:46:41;;;;;;;3.03;2.97;;;24.80;69.00;;;;;;5062641;28;43606;-70
2023/07/11 06:49:09;;;;;;;2.87;2.87;;;24.80;69.00;;;;;;5073222;28;43437;-70
2023/07/11 06:51:39;;;;;;;2.90;2.90;;;24.70;69.50;;;;;;5067726;28;43405;-70
2023/07/11 06:54:07;;;;;;;2.95;2.95;;;24.70;69.80;;;;;;5068077;28;43745;-72
2023/07/11 06:56:35;;;;;;;3.25;3.15;;;24.70;69.80;;;;;;5069132;28;43863;-73
2023/07/11 06:59:04;;;;;;;3.22;3.13;;;24.70;69.60;;;;;;5066580;28;44589;-73
2023/07/11 07:01:31;;;;;;;3.05;3.03;;;24.70;69.80;;;;;;5087671;28;43376;-73
2023/07/11 07:04:02;;;;;;;3.28;3.17;;;24.60;70.20;;;;;;5071104;28;43943;-71
2023/07/11 07:06:33;;;;;;;3.08;2.97;;;24.70;70.20;;;;;;5063663;28;43695;-70
2023/07/11 07:09:03;;;;;;;3.28;3.17;;;24.80;70.00;;;;;;5078339;28;43586;-70
2023/07/11 07:11:31;;;;;;;3.13;3.00;;;24.80;69.50;;;;;;5069454;28;43406;-69
2023/07/11 07:13:59;;;;;;;3.15;3.05;;;24.90;69.30;;;;;;5070631;28;43512;-69
2023/07/11 07:16:34;;;;;;;3.85;3.70;;;24.80;69.00;;;;;;5079991;28;43622;-69
2023/07/11 07:19:03;;;;;;;4.18;3.70;;;24.80;69.10;;;;;;5069373;28;44821;-69
2023/07/11 07:21:31;;;;;;;6.97;3.92;;;24.80;69.80;;;;;;5065543;28;43440;-69
2023/07/11 07:23:59;;;;;;;4.30;3.90;;;24.70;69.80;;;;;;5068065;28;43430;-69
2023/07/11 07:26:29;;;;;;;6.57;4.55;;;24.70;69.60;;;;;;5083570;28;43616;-69
2023/07/11 07:28:57;;;;;;;8.95;5.13;;;24.70;69.80;;;;;;5083309;28;43418;-69
2023/07/11 07:31:25;;;;;;;8.82;5.53;;;24.60;70.20;;;;;;5084414;28;43433;-71
2023/07/11 07:33:53;;;;;;;12.38;5.72;;;24.60;70.20;;;;;;5076867;28;43389;-70
2023/07/11 07:36:21;;;;;;;15.30;6.07;;;24.60;70.10;;;;;;5076700;28;43732;-72
2023/07/11 07:38:50;;;;;;;17.20;6.90;;;24.60;70.20;;;;;;5080413;28;43411;-70
2023/07/11 07:41:19;;;;;;;16.95;7.13;;;24.60;70.50;;;;;;5084275;28;43352;-70
2023/07/11 07:43:48;;;;;;;23.20;7.95;;;24.60;70.60;;;;;;5067392;28;43571;-70
2023/07/11 07:46:17;;;;;;;18.73;8.47;;;24.70;70.40;;;;;;5087175;27;43612;-69
2023/07/11 07:48:45;;;;;;;19.83;8.27;;;24.70;70.00;;;;;;5072624;28;43444;-69
2023/07/11 07:51:16;;;;;;;15.07;7.83;;;24.90;69.70;;;;;;5078239;28;43361;-69
2023/07/11 07:53:44;;;;;;;18.00;8.27;;;24.90;69.40;;;;;;5087202;28;43515;-69
2023/07/11 07:56:16;;;;;;;19.45;8.40;;;24.90;69.20;;;;;;5089299;28;43739;-70
2023/07/11 07:58:44;;;;;;;23.17;9.02;;;24.90;69.40;;;;;;5086166;28;43436;-70
2023/07/11 08:01:15;;;;;;;15.20;7.72;;;24.80;69.80;;;;;;5082650;28;43482;-71
2023/07/11 08:03:43;;;;;;;17.88;7.95;;;24.80;69.80;;;;;;5073401;28;43404;-74
2023/07/11 08:06:11;;;;;;;14.20;7.72;;;24.80;69.90;;;;;;5081822;28;43596;-71
2023/07/11 08:08:44;;;;;;;20.30;8.32;;;24.70;69.60;;;;;;5071728;28;44367;-70
2023/07/11 08:11:12;;;;;;;15.57;7.57;;;24.70;70.20;;;;;;5069170;28;43374;-73
2023/07/11 08:13:40;;;;;;;17.30;8.45;;;24.60;70.30;;;;;;5081604;28;43534;-70
2023/07/11 08:16:27;;;;;;;16.10;8.10;;;24.60;70.30;;;;;;5059257;28;43918;-72
2023/07/11 08:19:04;;;;;;;21.20;8.30;;;24.60;70.30;;;;;;5071528;28;43562;-72
2023/07/11 08:21:34;;;;;;;16.30;8.68;;;24.50;70.60;;;;;;5070950;28;44065;-75
2023/07/11 08:24:02;;;;;;;16.63;8.50;;;24.60;70.80;;;;;;5087827;28;43523;-71
2023/07/11 08:26:30;;;;;;;16.93;8.00;;;24.70;70.60;;;;;;5071853;28;43785;-71
2023/07/11 08:28:59;;;;;;;14.10;8.50;;;24.80;70.30;;;;;;5071392;28;45307;-71
2023/07/11 08:31:35;;;;;;;14.18;8.18;;;24.80;69.90;;;;;;5074639;28;43415;-71
2023/07/11 08:34:03;;;;;;;15.13;8.25;;;24.80;69.80;;;;;;5069586;28;43453;-71
2023/07/11 08:36:31;;;;;;;14.27;8.30;;;24.80;69.80;;;;;;5073073;28;43926;-71
2023/07/11 08:38:59;;;;;;;13.55;7.93;;;24.80;70.10;;;;;;5084544;28;43498;-71
2023/07/11 08:41:31;;;;;;;16.57;8.33;;;24.70;70.30;;;;;;5072181;28;43709;-71
2023/07/11 08:44:01;;;;;;;16.42;8.15;;;24.70;70.30;;;;;;5072509;28;44163;-71
2023/07/11 08:46:29;;;;;;;16.55;8.07;;;24.70;70.20;;;;;;5070931;28;45732;-71
2023/07/11 08:49:01;;;;;;;20.10;8.30;;;24.60;70.50;;;;;;5071799;28;45015;-71
2023/07/11 08:51:31;;;;;;;14.25;7.65;;;24.60;70.80;;;;;;5090144;28;43365;-70
2023/07/11 08:54:03;;;;;;;17.48;8.20;;;24.60;70.70;;;;;;5078865;28;44071;-70
2023/07/11 08:56:36;;;;;;;12.52;7.32;;;24.70;70.50;;;;;;5083425;28;43661;-70
2023/07/11 08:59:13;;;;;;;14.60;7.43;;;24.80;70.20;;;;;;5074065;28;43466;-71
2023/07/11 09:01:44;;;;;;;13.02;7.53;;;24.80;69.90;;;;;;5079519;28;43352;-71
2023/07/11 09:04:15;;;;;;;12.80;7.80;;;24.80;69.90;;;;;;5072166;28;43367;-70
2023/07/11 09:06:47;;;;;;;12.40;7.82;;;24.80;70.10;;;;;;5083715;28;43695;-71
2023/07/11 09:09:15;;;;;;;12.20;7.82;;;24.70;70.40;;;;;;5090095;28;43726;-72
2023/07/11 09:11:46;;;;;;;11.55;7.40;;;24.70;70.40;;;;;;5063245;28;43558;-70
2023/07/11 09:14:23;;;;;;;12.52;7.57;;;24.70;70.50;;;;;;5085710;28;43377;-70
2023/07/11 09:16:53;;;;;;;12.98;6.97;;;24.60;70.30;;;;;;5065289;28;45263;-70
2023/07/11 09:19:32;;;;;;;12.55;7.13;;;24.50;70.80;;;;;;5065564;28;44740;-70
2023/07/11 09:22:04;;;;;;;11.30;7.25;;;24.50;71.00;;;;;;5083355;28;43442;-70
2023/07/11 09:24:36;;;;;;;10.32;6.80;;;24.50;70.80;;;;;;5079824;28;43379;-71
2023/07/11 09:27:14;;;;;;;10.68;7.50;;;24.50;70.80;;;;;;5077203;28;43758;-72
2023/07/11 09:29:42;;;;;;;9.52;6.40;;;24.50;71.20;;;;;;5083493;28;43456;-71
2023/07/11 09:32:13;;;;;;;12.77;7.37;;;24.50;71.20;;;;;;5079394;28;43573;-71
2023/07/11 09:34:43;;;;;;;9.77;6.60;;;24.60;70.90;;;;;;5071976;28;43461;-70
2023/07/11 09:37:15;;;;;;;10.48;7.30;;;24.70;70.50;;;;;;5054924;28;45491;-70
2023/07/11 09:39:47;;;;;;;10.02;6.65;;;24.80;70.30;;;;;;5080607;28;43467;-71
2023/07/11 09:42:18;;;;;;;10.13;6.65;;;24.80;70.20;;;;;;5077175;28;43423;-71
2023/07/11 09:44:59;;;;;;;7.88;6.32;;;24.80;70.30;;;;;;5071226;28;43285;-70
2023/07/11 09:47:30;;;;;;;8.35;6.28;;;24.70;70.60;;;;;;5068759;28;43698;-72
2023/07/11 09:50:00;;;;;;;8.37;5.77;;;24.70;70.70;;;;;;5067721;28;43512;-72
2023/07/11 09:52:28;;;;;;;12.57;6.70;;;24.60;70.70;;;;;;5084140;28;43410;-71
2023/07/11 09:54:58;;;;;;;9.50;6.40;;;24.60;70.60;;;;;;5072352;28;43403;-73
2023/07/11 09:57:36;;;;;;;8.05;6.32;;;24.50;70.80;;;;;;5070275;28;43905;-70
2023/07/11 10:00:05;;;;;;;11.20;6.60;;;24.50;70.60;;;;;;5070547;28;45056;-71
2023/07/11 10:02:36;;;;;;;15.50;7.28;;;24.50;70.80;;;;;;5077708;28;43396;-70
2023/07/11 10:05:06;;;;;;;8.65;6.47;;;24.50;70.70;;;;;;5080268;28;43446;-71
2023/07/11 10:07:35;;;;;;;9.30;6.38;;;24.50;70.30;;;;;;5079331;28;45036;-70
2023/07/11 10:10:03;;;;;;;8.13;6.40;;;24.50;70.20;;;;;;5060743;28;45339;-70
2023/07/11 10:12:31;;;;;;;7.97;6.53;;;24.40;70.30;;;;;;5084260;28;43893;-72
2023/07/11 10:15:00;;;;;;;7.40;5.97;;;24.40;70.40;;;;;;5074568;28;44417;-70
2023/07/11 10:17:32;;;;;;;7.13;6.03;;;24.40;70.60;;;;;;5073747;28;43841;-73
2023/07/11 10:20:02;;;;;;;7.32;5.90;;;24.30;70.60;;;;;;5060233;28;43720;-75
2023/07/11 10:22:49;;;;;;;6.50;5.72;;;24.30;70.80;;;;;;5079466;28;43495;-70
2023/07/11 10:25:18;;;;;;;8.32;6.47;;;24.30;70.90;;;;;;5079462;28;43404;-73
2023/07/11 10:27:49;;;;;;;7.17;5.77;;;24.30;71.60;;;;;;5073875;28;43599;-77
2023/07/11 10:30:20;;;;;;;7.65;5.63;;;24.40;71.60;;;;;;5072353;28;44075;-72
2023/07/11 10:32:49;;;;;;;7.60;6.13;;;24.50;71.10;;;;;;5065607;28;43443;-73
2023/07/11 10:35:19;;;;;;;7.13;5.70;;;24.70;70.70;;;;;;5087740;28;43435;-71
2023/07/11 10:37:53;;;;;;;6.25;5.68;;;24.90;70.00;;;;;;5073690;28;43601;-71
2023/07/11 10:40:24;;;;;;;7.10;5.20;;;25.10;69.10;;;;;;5065887;28;44752;-73
2023/07/11 10:43:03;;;;;;;6.55;5.72;;;25.30;68.50;;;;;;5065866;28;43446;-70
2023/07/11 10:45:32;;;;;;;5.90;5.40;;;25.50;67.90;;;;;;5065648;28;43395;-71
2023/07/11 10:48:04;;;;;;;5.70;5.30;;;25.60;67.30;;;;;;5079427;28;43701;-72
2023/07/11 10:50:37;;;;;;;6.25;5.72;;;25.70;66.90;;;;;;5063348;28;43518;-71
2023/07/11 10:53:12;;;;;;;7.97;5.35;;;25.80;66.60;;;;;;5079119;28;43399;-72
2023/07/11 10:55:44;;;;;;;5.80;5.30;;;25.90;66.40;;;;;;5068477;28;43427;-71
2023/07/11 10:58:12;;;;;;;6.13;5.18;;;25.90;66.30;;;;;;5056562;28;46073;-71
2023/07/11 11:00:49;;;;;;;5.93;5.38;;;25.90;66.40;;;;;;5078851;28;43479;-72
2023/07/11 11:03:26;;;;;;;6.10;5.45;;;25.80;66.60;;;;;;5054022;28;43439;-72
2023/07/11 11:05:57;;;;;;;7.55;5.22;;;25.70;67.10;;;;;;5082077;28;43472;-70
2023/07/11 11:08:30;;;;;;;5.65;5.10;;;25.50;67.60;;;;;;5081198;28;44454;-71
2023/07/11 11:11:00;;;;;;;5.63;5.13;;;25.40;68.00;;;;;;5079906;28;43399;-70
2023/07/11 11:13:30;;;;;;;5.50;5.00;;;25.30;68.20;;;;;;5080728;28;43460;-74
2023/07/11 11:16:00;;;;;;;5.40;4.90;;;25.30;68.50;;;;;;5079460;28;43333;-71
2023/07/11 11:18:36;;;;;;;6.05;5.18;;;25.10;68.90;;;;;;5081463;28;43858;-71
2023/07/11 11:21:08;;;;;;;5.93;5.40;;;25.00;69.40;;;;;;5067981;28;43918;-71
2023/07/11 11:23:56;;;;;;;5.65;5.15;;;25.00;69.60;;;;;;5057327;28;43444;-71
2023/07/11 11:26:29;;;;;;;7.20;5.20;;;24.90;69.60;;;;;;5085811;28;43373;-71
2023/07/11 11:29:03;;;;;;;5.25;4.75;;;24.80;69.70;;;;;;5069517;28;46567;-70
2023/07/11 11:31:31;;;;;;;5.28;4.88;;;24.80;70.40;;;;;;5084534;28;43444;-71
2023/07/11 11:34:09;;;;;;;5.65;5.18;;;24.80;70.10;;;;;;5073591;28;43428;-70
2023/07/11 11:36:46;;;;;;;5.05;4.65;;;24.90;69.90;;;;;;5084282;28;43454;-71
2023/07/11 11:39:20;;;;;;;6.05;5.18;;;25.00;69.60;;;;;;5086891;28;43595;-71
2023/07/11 11:41:52;;;;;;;5.13;4.72;;;25.00;69.40;;;;;;5073437;28;43382;-71
2023/07/11 11:44:22;;;;;;;4.82;4.53;;;25.00;69.50;;;;;;5080841;28;43361;-72
2023/07/11 11:46:53;;;;;;;5.15;4.75;;;25.00;69.60;;;;;;5088300;28;43409;-72
2023/07/11 11:49:26;;;;;;;5.55;5.05;;;24.90;70.00;;;;;;5067878;28;43944;-70
2023/07/11 11:51:56;;;;;;;5.18;4.85;;;24.90;70.10;;;;;;5065265;28;44711;-70
2023/07/11 11:54:26;;;;;;;4.93;4.63;;;24.80;70.00;;;;;;5056185;28;44154;-70
2023/07/11 11:56:56;;;;;;;5.07;4.57;;;24.80;70.10;;;;;;5080833;28;43406;-70
2023/07/11 11:59:25;;;;;;;5.10;4.70;;;24.70;70.60;;;;;;5070682;28;43593;-71
2023/07/11 12:02:11;;;;;;;4.55;4.15;;;24.70;70.50;;;;;;5059611;28;43387;-71
2023/07/11 12:05:06;;;;;;;4.28;4.07;;;24.80;70.20;;;;;;5075921;28;43436;-71
2023/07/11 12:07:35;;;;;;;4.63;4.32;;;24.90;70.00;;;;;;5064301;28;43550;-70
2023/07/11 12:10:17;;;;;;;4.88;4.57;;;25.00;69.80;;;;;;5070644;28;43859;-70
2023/07/11 12:13:20;;;;;;;4.43;4.10;;;24.90;69.80;;;;;;5070314;28;43674;-71
2023/07/11 12:15:50;;;;;;;4.32;4.03;;;24.80;70.00;;;;;;5059640;28;43852;-70
2023/07/11 12:18:48;;;;;;;4.65;4.35;;;24.80;70.30;;;;;;5073401;28;43416;-71
2023/07/11 12:21:34;;;;;;;4.47;4.18;;;24.80;70.40;;;;;;5070874;28;43818;-72
2023/07/11 12:24:39;;;;;;;4.97;4.60;;;24.70;70.30;;;;;;5070669;28;43347;-70
2023/07/11 12:27:42;;;;;;;4.20;4.00;;;24.70;70.80;;;;;;5049958;28;43512;-71
2023/07/11 12:30:30;;;;;;;4.20;4.00;;;24.60;70.90;;;;;;5067615;28;43421;-71
2023/07/11 12:32:58;;;;;;;4.70;4.40;;;24.60;70.80;;;;;;5073797;28;46558;-71
2023/07/11 12:35:31;;;;;;;4.25;4.00;;;24.60;70.50;;;;;;5060405;28;44369;-72
2023/07/11 12:38:05;;;;;;;4.72;4.32;;;24.50;71.10;;;;;;5064653;28;44033;-70
2023/07/11 12:40:39;;;;;;;3.97;3.77;;;24.50;71.10;;;;;;5075660;28;43418;-71
2023/07/11 12:43:16;;;;;;;3.88;3.65;;;24.70;71.00;;;;;;5080081;28;43580;-72
2023/07/11 12:45:47;;;;;;;4.32;4.03;;;24.80;70.60;;;;;;5085239;28;43425;-71
2023/07/11 12:48:16;;;;;;;3.80;3.60;;;24.80;70.30;;;;;;5085113;28;43451;-71
2023/07/11 12:50:45;;;;;;;3.93;3.73;;;24.80;70.20;;;;;;5084416;28;43972;-71
2023/07/11 12:53:13;;;;;;;4.03;3.83;;;24.80;70.30;;;;;;5083825;28;43612;-71
2023/07/11 12:55:42;;;;;;;4.28;4.07;;;24.70;70.60;;;;;;5086835;28;43430;-71
2023/07/11 12:58:17;;;;;;;4.47;4.27;;;24.70;70.70;;;;;;5078631;28;44118;-71
2023/07/11 13:00:46;;;;;;;3.97;3.80;;;24.70;70.80;;;;;;5084101;28;43997;-71